createdAt,value
2022-08-25T00:00:14.078Z,18.43
2022-08-25T00:02:43.830Z,18.39
2022-08-25T00:05:26.244Z,18.35
2022-08-25T00:07:54.518Z,18.30
2022-08-25T00:10:21.755Z,18.26
2022-08-25T00:12:48.455Z,18.23
2022-08-25T00:15:15.644Z,18.18
2022-08-25T00:17:42.532Z,18.15
2022-08-25T00:20:10.227Z,18.08
2022-08-25T00:22:36.887Z,18.08
2022-08-25T00:25:04.008Z,18.03
2022-08-25T00:27:31.056Z,17.99
2022-08-25T00:29:57.636Z,17.97
2022-08-25T00:32:25.595Z,17.95
2022-08-25T00:34:52.265Z,17.92
2022-08-25T00:37:19.368Z,17.87
2022-08-25T00:39:46.313Z,17.85
2022-08-25T00:42:15.993Z,17.82
2022-08-25T00:44:43.975Z,17.80
2022-08-25T00:47:11.098Z,17.77
2022-08-25T00:49:49.554Z,17.71
2022-08-25T00:52:32.581Z,17.67
2022-08-25T00:55:08.224Z,17.64
2022-08-25T00:57:43.246Z,17.62
2022-08-25T01:00:14.290Z,17.60
2022-08-25T01:02:40.994Z,17.56
2022-08-25T01:05:08.247Z,17.52
2022-08-25T01:07:36.492Z,17.46
2022-08-25T01:10:04.922Z,17.42
2022-08-25T01:12:31.550Z,17.38
2022-08-25T01:14:59.138Z,17.35
2022-08-25T01:17:28.360Z,17.33
2022-08-25T01:19:55.914Z,17.30
2022-08-25T01:22:22.686Z,17.26
2022-08-25T01:25:04.029Z,17.25
2022-08-25T01:27:30.727Z,17.22
2022-08-25T01:29:58.066Z,17.16
2022-08-25T01:32:25.307Z,17.14
2022-08-25T01:34:52.088Z,17.12
2022-08-25T01:37:19.297Z,17.10
2022-08-25T01:39:46.665Z,17.05
2022-08-25T01:42:19.999Z,17.05
2022-08-25T01:44:48.069Z,16.98
2022-08-25T01:47:16.074Z,16.95
2022-08-25T01:49:43.045Z,16.93
2022-08-25T01:52:19.344Z,16.90
2022-08-25T01:54:47.972Z,16.87
2022-08-25T01:57:16.014Z,16.83
2022-08-25T01:59:42.899Z,16.82
2022-08-25T02:02:09.904Z,16.77
2022-08-25T02:04:38.229Z,16.75
2022-08-25T02:07:07.965Z,16.72
2022-08-25T02:09:36.483Z,16.69
2022-08-25T02:12:04.362Z,16.66
2022-08-25T02:14:31.055Z,16.66
2022-08-25T02:16:57.767Z,16.63
2022-08-25T02:19:26.047Z,16.60
2022-08-25T02:21:53.414Z,16.56
2022-08-25T02:24:20.197Z,16.55
2022-08-25T02:26:46.973Z,16.52
2022-08-25T02:29:13.942Z,16.51
2022-08-25T02:31:41.101Z,16.49
2022-08-25T02:34:09.212Z,16.43
2022-08-25T02:36:37.441Z,16.41
2022-08-25T02:39:05.983Z,16.38
2022-08-25T02:41:33.695Z,16.33
2022-08-25T02:44:02.389Z,16.31
2022-08-25T02:46:29.747Z,16.30
2022-08-25T02:48:56.944Z,16.26
2022-08-25T02:51:25.567Z,16.24
2022-08-25T02:53:52.761Z,16.20
2022-08-25T02:56:20.726Z,16.16
2022-08-25T02:58:48.088Z,16.13
2022-08-25T03:01:16.293Z,16.12
2022-08-25T03:03:45.856Z,16.07
2022-08-25T03:06:17.077Z,16.04
2022-08-25T03:08:44.567Z,16.02
2022-08-25T03:11:11.875Z,16.00
2022-08-25T03:13:38.796Z,15.96
2022-08-25T03:16:10.779Z,15.95
2022-08-25T03:18:39.973Z,15.91
2022-08-25T03:21:07.607Z,15.88
2022-08-25T03:23:34.268Z,15.87
2022-08-25T03:26:19.364Z,15.85
2022-08-25T03:28:46.030Z,15.80
2022-08-25T03:31:15.610Z,15.76
2022-08-25T03:33:43.194Z,15.74
2022-08-25T03:36:12.190Z,15.73
2022-08-25T03:38:39.905Z,15.68
2022-08-25T03:41:16.343Z,15.69
2022-08-25T03:43:43.259Z,15.64
2022-08-25T03:46:16.677Z,15.63
2022-08-25T03:48:43.785Z,15.59
2022-08-25T03:51:10.435Z,15.54
2022-08-25T03:53:37.167Z,15.52
2022-08-25T03:56:04.581Z,15.49
2022-08-25T03:58:31.306Z,15.47
2022-08-25T04:01:00.512Z,15.45
2022-08-25T04:03:27.436Z,15.45
2022-08-25T04:05:54.100Z,15.41
2022-08-25T04:08:23.420Z,15.37
2022-08-25T04:10:50.047Z,15.36
2022-08-25T04:13:16.704Z,15.35
2022-08-25T04:15:43.967Z,15.34
2022-08-25T04:18:11.728Z,15.31
2022-08-25T04:20:38.879Z,15.28
2022-08-25T04:23:07.108Z,15.27
2022-08-25T04:25:33.884Z,15.25
2022-08-25T04:28:00.523Z,15.22
2022-08-25T04:30:27.195Z,15.20
2022-08-25T04:32:53.956Z,15.15
2022-08-25T04:35:21.357Z,15.12
2022-08-25T04:37:49.013Z,15.12
2022-08-25T04:40:15.801Z,15.11
2022-08-25T04:42:42.587Z,15.10
2022-08-25T04:45:09.424Z,15.07
2022-08-25T04:47:40.028Z,15.07
2022-08-25T04:50:07.787Z,15.05
2022-08-25T04:52:34.642Z,15.03
2022-08-25T04:55:01.494Z,15.00
2022-08-25T04:57:28.381Z,15.02
2022-08-25T04:59:55.671Z,15.02
2022-08-25T05:02:23.000Z,15.02
2022-08-25T05:04:49.638Z,15.00
2022-08-25T05:07:16.378Z,14.99
2022-08-25T05:09:43.074Z,14.99
2022-08-25T05:12:09.896Z,14.99
2022-08-25T05:14:38.797Z,14.99
2022-08-25T05:17:08.975Z,14.98
2022-08-25T05:19:36.527Z,14.99
2022-08-25T05:22:03.418Z,14.99
2022-08-25T05:24:30.170Z,15.00
2022-08-25T05:26:57.732Z,15.01
2022-08-25T05:29:24.466Z,15.00
2022-08-25T05:31:51.240Z,15.01
2022-08-25T05:34:19.477Z,15.03
2022-08-25T05:36:46.741Z,15.02
2022-08-25T05:39:13.456Z,15.05
2022-08-25T05:41:40.665Z,15.05
2022-08-25T05:44:07.726Z,15.07
2022-08-25T05:46:34.496Z,15.07
2022-08-25T05:49:01.112Z,15.10
2022-08-25T05:51:27.889Z,15.13
2022-08-25T05:53:54.823Z,15.15
2022-08-25T05:56:21.664Z,15.17
2022-08-25T05:58:48.513Z,15.21
2022-08-25T06:01:45.146Z,15.21
2022-08-25T06:04:12.946Z,15.22
2022-08-25T06:06:40.466Z,15.24
2022-08-25T06:09:09.744Z,15.28
2022-08-25T06:11:40.864Z,15.30
2022-08-25T06:14:11.208Z,15.34
2022-08-25T06:16:40.690Z,15.37
2022-08-25T06:19:11.394Z,15.39
2022-08-25T06:21:40.933Z,15.44
2022-08-25T06:24:14.715Z,15.49
2022-08-25T06:26:42.409Z,15.52
2022-08-25T06:29:09.008Z,15.56
2022-08-25T06:31:35.737Z,15.60
2022-08-25T06:34:02.457Z,15.66
2022-08-25T06:36:29.115Z,15.70
2022-08-25T06:38:55.717Z,15.74
2022-08-25T06:41:22.663Z,15.69
2022-08-25T06:43:54.130Z,15.55
2022-08-25T06:46:35.877Z,15.72
2022-08-25T06:49:04.905Z,15.81
2022-08-25T06:51:31.797Z,15.88
2022-08-25T06:53:58.613Z,15.87
2022-08-25T06:56:25.787Z,15.96
2022-08-25T06:58:53.572Z,16.02
2022-08-25T07:01:27.223Z,16.02
2022-08-25T07:03:59.923Z,16.12
2022-08-25T07:06:31.903Z,16.22
2022-08-25T07:08:59.603Z,16.26
2022-08-25T07:11:26.534Z,16.31
2022-08-25T07:13:53.376Z,16.38
2022-08-25T07:16:20.857Z,16.45
2022-08-25T07:18:48.175Z,16.51
2022-08-25T07:21:15.627Z,16.55
2022-08-25T07:23:42.876Z,16.57
2022-08-25T07:26:36.350Z,16.60
2022-08-25T07:29:09.971Z,16.65
2022-08-25T07:31:37.560Z,16.69
2022-08-25T07:34:23.229Z,16.73
2022-08-25T07:36:49.892Z,16.68
2022-08-25T07:39:17.557Z,16.77
2022-08-25T07:41:52.436Z,16.79
2022-08-25T07:44:20.403Z,16.84
2022-08-25T07:46:47.145Z,16.88
2022-08-25T07:52:04.390Z,16.99
2022-08-25T07:54:34.551Z,17.04
2022-08-25T07:57:03.487Z,17.07
2022-08-25T07:59:31.211Z,17.12
2022-08-25T08:02:18.362Z,17.19
2022-08-25T08:04:49.320Z,17.23
2022-08-25T08:07:18.700Z,17.28
2022-08-25T08:09:45.655Z,17.31
2022-08-25T08:12:12.495Z,17.37
2022-08-25T08:14:39.576Z,17.41
2022-08-25T08:17:12.750Z,17.46
2022-08-25T08:19:43.082Z,17.50
2022-08-25T08:22:15.109Z,17.55
2022-08-25T08:24:56.133Z,17.61
2022-08-25T08:27:24.544Z,17.65
2022-08-25T08:29:52.077Z,17.67
2022-08-25T08:32:18.851Z,17.74
2022-08-25T08:34:47.087Z,17.79
2022-08-25T08:37:18.626Z,17.75
2022-08-25T08:39:47.876Z,17.87
2022-08-25T08:42:33.310Z,17.90
2022-08-25T08:45:21.320Z,17.97
2022-08-25T08:48:10.329Z,18.04
2022-08-25T08:50:51.773Z,18.09
2022-08-25T08:53:21.658Z,18.20
2022-08-25T08:55:52.820Z,18.27
2022-08-25T08:58:32.977Z,18.39
2022-08-25T09:01:01.834Z,18.43
2022-08-25T09:03:41.839Z,18.53
2022-08-25T09:06:14.415Z,18.56
2022-08-25T09:08:44.960Z,18.67
2022-08-25T09:11:12.212Z,18.74
2022-08-25T09:14:01.500Z,18.90
2022-08-25T09:16:56.309Z,18.97
2022-08-25T09:19:23.869Z,19.04
2022-08-25T09:22:33.911Z,19.14
2022-08-25T09:25:53.245Z,19.17
2022-08-25T09:28:39.853Z,19.19
2022-08-25T09:31:19.701Z,19.33
2022-08-25T09:33:46.574Z,19.39
2022-08-25T09:36:13.872Z,19.41
2022-08-25T09:38:41.417Z,19.52
2022-08-25T09:41:08.928Z,19.58
2022-08-25T09:43:40.432Z,19.69
2022-08-25T09:46:16.124Z,19.75
2022-08-25T09:48:45.306Z,19.80
2022-08-25T09:51:23.809Z,19.88
2022-08-25T09:54:02.810Z,19.93
2022-08-25T09:56:50.664Z,19.97
2022-08-25T09:59:34.444Z,20.03
2022-08-25T10:02:26.443Z,20.16
2022-08-25T10:04:54.698Z,20.18
2022-08-25T10:07:26.770Z,20.26
2022-08-25T10:10:01.179Z,20.37
2022-08-25T10:12:42.338Z,20.45
2022-08-25T10:15:17.215Z,20.46
2022-08-25T10:18:20.171Z,20.55
2022-08-25T10:21:08.376Z,20.60
2022-08-25T10:23:38.867Z,20.73
2022-08-25T10:26:13.449Z,20.80
2022-08-25T10:29:06.928Z,20.90
2022-08-25T10:31:41.285Z,21.01
2022-08-25T10:34:51.623Z,21.12
2022-08-25T10:37:26.393Z,21.16
2022-08-25T10:40:28.529Z,21.14
2022-08-25T10:43:35.797Z,21.22
2022-08-25T10:46:16.512Z,21.34
2022-08-25T10:49:16.405Z,21.47
2022-08-25T10:52:00.396Z,21.52
2022-08-25T10:54:45.654Z,21.57
2022-08-25T10:57:30.747Z,21.69
2022-08-25T11:00:07.979Z,21.86
2022-08-25T11:02:57.278Z,21.85
2022-08-25T11:05:45.415Z,21.92
2022-08-25T11:08:20.014Z,21.95
2022-08-25T11:11:13.165Z,22.08
2022-08-25T11:14:21.147Z,22.18
2022-08-25T11:17:11.996Z,22.44
2022-08-25T11:19:43.984Z,22.49
2022-08-25T11:22:19.360Z,22.37
2022-08-25T11:25:00.027Z,22.45
2022-08-25T11:27:42.294Z,22.48
2022-08-25T11:30:16.665Z,22.59
2022-08-25T11:32:49.329Z,22.74
2022-08-25T11:35:19.290Z,22.82
2022-08-25T11:37:57.342Z,22.92
2022-08-25T11:40:53.633Z,23.04
2022-08-25T11:43:50.835Z,23.11
2022-08-25T11:46:26.153Z,23.24
2022-08-25T11:49:15.304Z,23.36
2022-08-25T11:51:48.378Z,23.42
2022-08-25T11:54:43.094Z,23.48
2022-08-25T11:57:22.226Z,23.53
2022-08-25T11:59:55.826Z,23.58
2022-08-25T12:02:40.855Z,23.68
2022-08-25T12:05:15.580Z,23.89
2022-08-25T12:07:52.355Z,23.93
2022-08-25T12:10:22.843Z,23.97
2022-08-25T12:12:49.441Z,24.11
2022-08-25T12:15:32.805Z,24.28
2022-08-25T12:18:21.919Z,24.27
2022-08-25T12:20:57.489Z,24.38
2022-08-25T12:23:34.694Z,24.35
2022-08-25T12:26:11.160Z,24.30
2022-08-25T12:28:55.906Z,24.42
2022-08-25T12:31:43.133Z,24.58
2022-08-25T12:34:26.819Z,24.61
2022-08-25T12:37:06.489Z,24.70
2022-08-25T12:39:43.099Z,24.77
2022-08-25T12:42:26.162Z,24.78
2022-08-25T12:45:14.119Z,24.85
2022-08-25T12:47:47.546Z,24.99
2022-08-25T12:50:36.414Z,25.17
2022-08-25T12:53:16.003Z,25.25
2022-08-25T12:55:49.530Z,25.32
2022-08-25T12:58:17.065Z,25.40
2022-08-25T13:01:13.293Z,25.47
2022-08-25T13:04:41.986Z,25.57
2022-08-25T13:07:15.495Z,25.58
2022-08-25T13:10:01.915Z,25.57
2022-08-25T13:12:51.287Z,25.77
2022-08-25T13:15:47.014Z,25.80
2022-08-25T13:18:21.541Z,25.86
2022-08-25T13:20:52.719Z,25.94
2022-08-25T13:23:25.886Z,25.97
2022-08-25T13:25:54.542Z,26.01
2022-08-25T13:28:29.836Z,26.05
2022-08-25T13:31:00.128Z,26.03
2022-08-25T13:33:27.912Z,26.12
2022-08-25T13:36:15.509Z,26.23
2022-08-25T13:38:45.928Z,26.32
2022-08-25T13:41:23.441Z,26.37
2022-08-25T13:43:56.578Z,26.44
2022-08-25T13:46:27.831Z,26.47
2022-08-25T13:49:07.001Z,26.46
2022-08-25T13:51:37.093Z,26.57
2022-08-25T13:54:08.476Z,26.69
2022-08-25T13:56:41.142Z,26.71
2022-08-25T13:59:25.772Z,26.73
2022-08-25T14:01:54.606Z,26.82
2022-08-25T14:04:26.419Z,26.81
2022-08-25T14:07:13.930Z,26.95
2022-08-25T14:09:48.899Z,26.99
2022-08-25T14:12:33.768Z,27.09
2022-08-25T14:15:01.607Z,27.13
2022-08-25T14:17:39.707Z,27.12
2022-08-25T14:20:29.274Z,27.22
2022-08-25T14:22:59.463Z,27.36
2022-08-25T14:25:32.661Z,27.46
2022-08-25T14:28:07.248Z,27.48
2022-08-25T14:30:39.318Z,27.53
2022-08-25T14:33:06.956Z,27.57
2022-08-25T14:35:34.373Z,27.72
2022-08-25T14:38:07.658Z,27.59
2022-08-25T14:40:35.562Z,27.67
2022-08-25T14:43:02.442Z,27.83
2022-08-25T14:45:31.314Z,27.95
2022-08-25T14:48:10.210Z,27.97
2022-08-25T14:50:38.224Z,28.09
2022-08-25T14:53:10.392Z,28.17
2022-08-25T14:55:37.756Z,28.25
2022-08-25T14:58:04.748Z,28.31
2022-08-25T15:00:36.813Z,28.39
2022-08-25T15:03:03.970Z,28.49
2022-08-25T15:05:31.881Z,28.50
2022-08-25T15:08:17.182Z,28.43
2022-08-25T15:10:44.264Z,28.63
2022-08-25T15:13:11.087Z,28.67
2022-08-25T15:15:52.558Z,28.73
2022-08-25T15:18:20.880Z,28.75
2022-08-25T15:20:50.183Z,28.83
2022-08-25T15:23:18.776Z,28.81
2022-08-25T15:25:47.405Z,28.74
2022-08-25T15:28:17.284Z,28.63
2022-08-25T15:30:45.942Z,28.82
2022-08-25T15:33:13.627Z,28.88
2022-08-25T15:35:40.622Z,28.81
2022-08-25T15:38:08.201Z,28.91
2022-08-25T15:40:37.630Z,28.95
2022-08-25T15:43:07.772Z,28.93
2022-08-25T15:45:36.222Z,28.99
2022-08-25T15:48:04.495Z,29.08
2022-08-25T15:50:33.840Z,28.98
2022-08-25T15:53:00.788Z,29.06
2022-08-25T15:55:28.067Z,29.13
2022-08-25T15:57:55.661Z,29.09
2022-08-25T16:00:22.894Z,28.94
2022-08-25T16:02:50.256Z,29.04
2022-08-25T16:05:17.071Z,29.04
2022-08-25T16:07:46.087Z,29.07
2022-08-25T16:10:18.706Z,29.05
2022-08-25T16:12:45.517Z,29.05
2022-08-25T16:15:12.494Z,29.02
2022-08-25T16:17:40.962Z,29.13
2022-08-25T16:20:13.739Z,29.12
2022-08-25T16:22:41.043Z,29.05
2022-08-25T16:25:08.528Z,29.11
2022-08-25T16:27:38.712Z,29.11
2022-08-25T16:30:08.156Z,29.15
2022-08-25T16:32:35.084Z,29.04
2022-08-25T16:35:02.628Z,29.07
2022-08-25T16:37:29.948Z,29.03
2022-08-25T16:39:57.408Z,29.01
2022-08-25T16:42:24.538Z,28.88
2022-08-25T16:44:53.833Z,28.88
2022-08-25T16:47:25.177Z,28.86
2022-08-25T16:49:53.719Z,28.86
2022-08-25T16:52:39.282Z,28.81
2022-08-25T16:55:14.362Z,28.79
2022-08-25T16:57:47.782Z,28.77
2022-08-25T17:00:18.158Z,28.73
2022-08-25T17:02:46.309Z,28.72
2022-08-25T17:05:14.750Z,28.68
2022-08-25T17:07:41.536Z,28.65
2022-08-25T17:10:12.432Z,28.61
2022-08-25T17:12:40.555Z,28.60
2022-08-25T17:15:07.641Z,28.55
2022-08-25T17:17:36.463Z,28.50
2022-08-25T17:20:04.820Z,28.47
2022-08-25T17:22:31.845Z,28.42
2022-08-25T17:25:00.974Z,28.38
2022-08-25T17:27:28.255Z,28.33
2022-08-25T17:29:55.947Z,28.27
2022-08-25T17:32:30.210Z,28.23
2022-08-25T17:34:57.739Z,28.16
2022-08-25T17:37:24.681Z,28.11
2022-08-25T17:39:56.735Z,28.05
2022-08-25T17:42:31.368Z,27.99
2022-08-25T17:44:58.283Z,27.93
2022-08-25T17:47:26.899Z,27.86
2022-08-25T17:49:54.330Z,27.80
2022-08-25T17:52:25.400Z,27.74
2022-08-25T17:54:52.691Z,27.68
2022-08-25T17:57:20.732Z,27.61
2022-08-25T17:59:48.031Z,27.56
2022-08-25T18:02:14.885Z,27.49
2022-08-25T18:04:41.731Z,27.44
2022-08-25T18:07:08.493Z,27.37
2022-08-25T18:09:35.254Z,27.31
2022-08-25T18:12:02.132Z,27.24
2022-08-25T18:14:30.054Z,27.18
2022-08-25T18:16:57.306Z,27.11
2022-08-25T18:19:24.206Z,27.01
2022-08-25T18:21:51.848Z,26.93
2022-08-25T18:24:19.516Z,26.87
2022-08-25T18:26:46.883Z,26.82
2022-08-25T18:29:13.576Z,26.73
2022-08-25T18:31:41.756Z,26.69
2022-08-25T18:34:11.166Z,26.63
2022-08-25T18:36:38.833Z,26.54
2022-08-25T18:39:25.361Z,26.51
2022-08-25T18:41:52.187Z,26.44
2022-08-25T18:44:19.325Z,26.36
2022-08-25T18:46:46.571Z,26.32
2022-08-25T18:49:16.135Z,26.26
2022-08-25T18:51:44.953Z,25.90
2022-08-25T18:54:23.212Z,26.05
2022-08-25T18:56:52.639Z,26.02
2022-08-25T18:59:19.974Z,25.96
2022-08-25T19:01:50.985Z,25.94
2022-08-25T19:04:17.693Z,25.90
2022-08-25T19:06:44.837Z,25.84
2022-08-25T19:09:11.854Z,25.79
2022-08-25T19:11:38.657Z,25.74
2022-08-25T19:14:12.178Z,25.65
2022-08-25T19:16:42.458Z,25.58
2022-08-25T19:19:13.242Z,25.47
2022-08-25T19:21:41.094Z,25.40
2022-08-25T19:24:10.154Z,25.36
2022-08-25T19:26:37.600Z,25.26
2022-08-25T19:29:08.911Z,25.21
2022-08-25T19:31:39.325Z,25.13
2022-08-25T19:34:07.513Z,25.07
2022-08-25T19:36:34.573Z,25.01
2022-08-25T19:39:01.995Z,24.95
2022-08-25T19:41:31.285Z,24.90
2022-08-25T19:43:58.457Z,24.84
2022-08-25T19:46:32.655Z,24.77
2022-08-25T19:49:09.590Z,24.73
2022-08-25T19:51:38.431Z,24.64
2022-08-25T19:54:09.281Z,24.58
2022-08-25T19:56:43.592Z,24.51
2022-08-25T19:59:22.347Z,24.45
2022-08-25T20:01:50.209Z,24.39
2022-08-25T20:04:17.192Z,24.30
2022-08-25T20:06:43.921Z,24.24
2022-08-25T20:09:29.343Z,24.19
2022-08-25T20:12:02.199Z,24.13
2022-08-25T20:14:29.235Z,24.05
2022-08-25T20:16:55.862Z,23.98
2022-08-25T20:19:22.552Z,23.95
2022-08-25T20:21:49.248Z,23.91
2022-08-25T20:24:34.264Z,23.85
2022-08-25T20:27:01.485Z,23.80
2022-08-25T20:29:29.667Z,23.76
2022-08-25T20:31:56.478Z,23.72
2022-08-25T20:34:23.204Z,23.67
2022-08-25T20:36:50.781Z,23.63
2022-08-25T20:39:18.070Z,23.56
2022-08-25T20:41:48.256Z,23.52
2022-08-25T20:44:16.396Z,23.48
2022-08-25T20:46:44.696Z,23.45
2022-08-25T20:49:11.844Z,23.40
2022-08-25T20:51:38.666Z,23.33
2022-08-25T20:54:05.624Z,23.31
2022-08-25T20:56:32.531Z,23.27
2022-08-25T20:59:02.196Z,23.21
2022-08-25T21:01:39.788Z,23.16
2022-08-25T21:04:15.344Z,23.13
2022-08-25T21:06:43.019Z,23.07
2022-08-25T21:09:16.075Z,23.05
2022-08-25T21:11:45.034Z,22.97
2022-08-25T21:14:12.887Z,22.92
2022-08-25T21:16:40.978Z,22.90
2022-08-25T21:19:08.841Z,22.85
2022-08-25T21:21:38.684Z,22.79
2022-08-25T21:24:09.824Z,22.76
2022-08-25T21:26:37.820Z,22.69
2022-08-25T21:29:16.083Z,22.62
2022-08-25T21:31:42.945Z,22.59
2022-08-25T21:34:11.659Z,22.56
2022-08-25T21:36:39.329Z,22.50
2022-08-25T21:39:06.118Z,22.45
2022-08-25T21:41:34.618Z,22.39
2022-08-25T21:44:01.992Z,22.34
2022-08-25T21:46:31.230Z,22.30
2022-08-25T21:48:58.707Z,22.26
2022-08-25T21:51:32.342Z,22.23
2022-08-25T21:54:11.065Z,22.17
2022-08-25T21:56:39.671Z,22.14
2022-08-25T21:59:08.720Z,22.09
2022-08-25T22:01:35.721Z,22.05
2022-08-25T22:04:03.385Z,22.00
2022-08-25T22:06:30.409Z,21.94
2022-08-25T22:08:57.884Z,21.90
2022-08-25T22:11:26.639Z,21.86
2022-08-25T22:13:55.047Z,21.82
2022-08-25T22:16:24.576Z,21.77
2022-08-25T22:18:51.772Z,21.73
2022-08-25T22:21:20.214Z,21.70
2022-08-25T22:23:46.849Z,21.65
2022-08-25T22:26:17.399Z,21.59
2022-08-25T22:28:49.388Z,21.56
2022-08-25T22:31:20.567Z,21.50
2022-08-25T22:33:48.816Z,21.46
2022-08-25T22:36:24.776Z,21.43
2022-08-25T22:38:52.623Z,21.37
2022-08-25T22:41:21.422Z,21.34
2022-08-25T22:43:49.747Z,21.28
2022-08-25T22:46:19.521Z,21.25
2022-08-25T22:48:46.675Z,21.19
2022-08-25T22:51:23.198Z,21.17
2022-08-25T22:53:50.711Z,21.13
2022-08-25T22:56:20.920Z,21.10
2022-08-25T22:58:51.427Z,21.04
2022-08-25T23:01:20.103Z,21.00
2022-08-25T23:03:47.704Z,20.98
2022-08-25T23:06:20.715Z,20.94
2022-08-25T23:08:50.293Z,20.90
2022-08-25T23:11:18.308Z,20.88
2022-08-25T23:13:45.682Z,20.84
2022-08-25T23:16:13.158Z,20.79
2022-08-25T23:18:43.982Z,20.75
2022-08-25T23:21:35.005Z,20.72
2022-08-25T23:24:05.613Z,20.67
2022-08-25T23:26:36.381Z,20.63
2022-08-25T23:29:13.621Z,20.61
2022-08-25T23:31:45.065Z,20.54
2022-08-25T23:34:11.900Z,20.48
2022-08-25T23:36:40.355Z,20.40
2022-08-25T23:39:07.866Z,20.39
2022-08-25T23:41:34.980Z,20.38
2022-08-25T23:44:05.622Z,20.36
2022-08-25T23:46:35.080Z,20.30
2022-08-25T23:49:03.968Z,20.27
2022-08-25T23:51:37.219Z,20.26
2022-08-25T23:54:06.497Z,20.22
2022-08-25T23:56:36.070Z,20.19
2022-08-25T23:59:04.366Z,20.06
